Time;durP1;ratioP1;P1;durP2;ratioP2;P2;SDS_P1;SDS_P2;PMS_P1;PMS_P2;Temp;Humidity;BMP_temperature;BMP_pressure;BME280_temperature;BME280_humidity;BME280_pressure;Samples;Min_cycle;Max_cycle;Signal;HPM_P1;HPM_P2
2022/03/01 00:01:52;;;;;;;;;;;18.70;99.90;;;;;;5047122;28;19928;-63
2022/03/01 00:04:21;;;;;;;;;;;18.70;99.90;;;;;;5046548;28;19925;-61
2022/03/01 00:06:48;;;;;;;;;;;18.70;99.90;;;;;;5047640;28;20589;-64
2022/03/01 00:09:15;;;;;;;;;;;18.70;99.90;;;;;;5060284;28;19924;-62
2022/03/01 00:11:42;;;;;;;;;;;18.60;99.90;;;;;;5055227;28;19924;-59
2022/03/01 00:14:10;;;;;;;;;;;18.60;99.90;;;;;;5051720;28;20426;-59
2022/03/01 00:16:37;;;;;;;;;;;18.60;99.90;;;;;;5041917;28;19928;-63
2022/03/01 00:19:05;;;;;;;;;;;18.60;99.90;;;;;;5042735;28;19948;-65
2022/03/01 00:21:32;;;;;;;;;;;18.60;99.90;;;;;;5050734;28;19929;-62
2022/03/01 00:23:59;;;;;;;;;;;18.60;99.90;;;;;;5046177;28;19933;-63
2022/03/01 00:26:26;;;;;;;;;;;18.60;99.90;;;;;;5056062;28;19929;-65
2022/03/01 00:28:53;;;;;;;;;;;18.60;99.90;;;;;;5046671;28;20336;-62
2022/03/01 00:31:20;;;;;;;;;;;18.60;99.90;;;;;;5043256;28;19925;-62
2022/03/01 00:33:47;;;;;;;;;;;18.50;99.90;;;;;;5045600;28;20123;-60
2022/03/01 00:36:15;;;;;;;;;;;18.50;99.90;;;;;;5043133;28;19924;-62
2022/03/01 00:38:42;;;;;;;;;;;18.50;99.90;;;;;;5045681;28;20312;-60
2022/03/01 00:41:09;;;;;;;;;;;18.50;99.90;;;;;;5045110;28;19929;-61
2022/03/01 00:43:36;;;;;;;;;;;18.50;99.90;;;;;;5043215;28;19952;-61
2022/03/01 00:46:04;;;;;;;;;;;18.50;99.90;;;;;;5055090;28;19940;-63
2022/03/01 00:48:31;;;;;;;;;;;18.50;99.90;;;;;;5047573;28;19933;-61
2022/03/01 00:50:58;;;;;;;;;;;18.50;99.90;;;;;;5046127;28;19936;-61
2022/03/01 00:53:25;;;;;;;;;;;18.50;99.90;;;;;;5045551;28;19929;-63
2022/03/01 00:55:52;;;;;;;;;;;18.50;99.90;;;;;;5076043;28;19939;-63
2022/03/01 00:58:19;;;;;;;;;;;18.50;99.90;;;;;;5044445;28;19929;-63
2022/03/01 01:00:46;;;;;;;;;;;18.40;99.90;;;;;;5050208;28;19948;-60
2022/03/01 01:03:14;;;;;;;;;;;18.40;99.90;;;;;;5042044;28;19937;-65
2022/03/01 01:05:41;;;;;;;;;;;18.40;99.90;;;;;;5043868;28;19929;-63
2022/03/01 01:08:08;;;;;;;;;;;18.40;99.90;;;;;;5043658;28;19948;-68
2022/03/01 01:10:35;;;;;;;;;;;18.40;99.90;;;;;;5038796;28;20345;-61
2022/03/01 01:13:02;;;;;;;;;;;18.40;99.90;;;;;;5048953;28;19936;-65
2022/03/01 01:15:30;;;;;;;;;;;18.40;99.90;;;;;;5043529;28;20312;-58
2022/03/01 01:17:57;;;;;;;;;;;18.40;99.90;;;;;;5049965;28;19933;-62
2022/03/01 01:20:24;;;;;;;;;;;18.40;99.90;;;;;;5045378;28;19929;-64
2022/03/01 01:22:52;;;;;;;;;;;18.40;99.90;;;;;;5046557;28;19936;-62
2022/03/01 01:25:21;;;;;;;;;;;18.40;99.90;;;;;;5045671;28;19929;-62
2022/03/01 01:27:50;;;;;;;;;;;18.30;99.90;;;;;;5042001;28;19948;-63
2022/03/01 01:30:18;;;;;;;;;;;18.30;99.90;;;;;;5041598;28;19928;-64
2022/03/01 01:32:48;;;;;;;;;;;18.30;99.90;;;;;;5042917;28;19929;-61
2022/03/01 01:35:20;;;;;;;;;;;18.30;99.90;;;;;;5040154;28;19957;-62
2022/03/01 01:37:48;;;;;;;;;;;18.30;99.90;;;;;;5044327;28;19932;-60
2022/03/01 01:40:20;;;;;;;;;;;18.30;99.90;;;;;;5046659;28;19928;-59
2022/03/01 01:42:47;;;;;;;;;;;18.30;99.90;;;;;;5046926;28;19929;-62
2022/03/01 01:45:14;;;;;;;;;;;18.30;99.90;;;;;;5042684;28;19939;-62
2022/03/01 01:47:46;;;;;;;;;;;18.30;99.90;;;;;;5039445;28;19936;-59
2022/03/01 01:50:14;;;;;;;;;;;18.20;99.90;;;;;;5047179;28;19928;-66
2022/03/01 01:52:43;;;;;;;;;;;18.20;99.90;;;;;;5044243;28;19952;-64
2022/03/01 01:55:10;;;;;;;;;;;18.20;99.90;;;;;;5044036;28;20034;-60
2022/03/01 01:57:37;;;;;;;;;;;18.20;99.90;;;;;;5045469;28;19928;-64
2022/03/01 02:00:05;;;;;;;;;;;18.20;99.90;;;;;;5042696;28;19925;-63
2022/03/01 02:02:38;;;;;;;;;;;18.20;99.90;;;;;;5050976;28;20150;-60
2022/03/01 02:05:07;;;;;;;;;;;18.30;99.90;;;;;;5042958;28;20312;-61
2022/03/01 02:07:35;;;;;;;;;;;18.30;99.90;;;;;;5043306;28;19936;-62
2022/03/01 02:10:02;;;;;;;;;;;18.30;99.90;;;;;;5047153;28;19925;-60
2022/03/01 02:12:29;;;;;;;;;;;18.30;99.90;;;;;;5043967;28;20312;-59
2022/03/01 02:14:57;;;;;;;;;;;18.30;99.90;;;;;;5046677;28;20377;-62
2022/03/01 02:17:24;;;;;;;;;;;18.30;99.90;;;;;;5044550;28;19952;-62
2022/03/01 02:19:51;;;;;;;;;;;18.30;99.90;;;;;;5044932;28;19929;-61
2022/03/01 02:22:18;;;;;;;;;;;18.30;99.90;;;;;;5038392;28;19948;-62
2022/03/01 02:24:46;;;;;;;;;;;18.30;99.90;;;;;;5042631;28;19933;-62
2022/03/01 02:27:13;;;;;;;;;;;18.20;99.90;;;;;;5043795;28;19940;-62
2022/03/01 02:29:41;;;;;;;;;;;18.20;99.90;;;;;;5042510;28;20480;-61
2022/03/01 02:32:08;;;;;;;;;;;18.20;99.90;;;;;;5047982;28;19940;-65
2022/03/01 02:34:36;;;;;;;;;;;18.20;99.90;;;;;;5047912;28;19926;-67
2022/03/01 02:37:03;;;;;;;;;;;18.20;99.90;;;;;;5049597;28;19940;-63
2022/03/01 02:39:33;;;;;;;;;;;18.20;99.90;;;;;;5047678;28;19939;-66
2022/03/01 02:42:01;;;;;;;;;;;18.20;99.90;;;;;;5042254;28;19929;-63
2022/03/01 02:44:28;;;;;;;;;;;18.20;99.90;;;;;;5041816;28;19929;-62
2022/03/01 02:46:55;;;;;;;;;;;18.10;99.90;;;;;;5051432;28;19935;-61
2022/03/01 02:49:23;;;;;;;;;;;18.10;99.90;;;;;;5044993;28;19933;-61
2022/03/01 02:51:50;;;;;;;;;;;18.10;99.90;;;;;;5048151;28;20040;-61
2022/03/01 02:54:17;;;;;;;;;;;18.10;99.90;;;;;;5043173;28;19925;-63
2022/03/01 02:56:45;;;;;;;;;;;18.10;99.90;;;;;;5043543;28;19932;-60
2022/03/01 02:59:12;;;;;;;;;;;18.00;99.90;;;;;;5042983;28;19962;-60
2022/03/01 03:01:39;;;;;;;;;;;18.10;99.90;;;;;;5049206;28;19936;-62
2022/03/01 03:04:06;;;;;;;;;;;18.00;99.90;;;;;;5045047;28;19936;-61
2022/03/01 03:06:34;;;;;;;;;;;18.00;99.90;;;;;;5045699;28;20343;-59
2022/03/01 03:09:01;;;;;;;;;;;18.00;99.90;;;;;;5046225;28;20155;-62
2022/03/01 03:11:28;;;;;;;;;;;18.00;99.90;;;;;;5041464;28;20244;-59
2022/03/01 03:13:55;;;;;;;;;;;18.00;99.90;;;;;;5048612;28;19936;-65
2022/03/01 03:16:22;;;;;;;;;;;18.00;99.90;;;;;;5041455;28;20372;-60
2022/03/01 03:18:49;;;;;;;;;;;18.00;99.90;;;;;;5049271;28;19928;-63
2022/03/01 03:21:16;;;;;;;;;;;18.00;99.90;;;;;;5043638;28;19936;-62
2022/03/01 03:23:45;;;;;;;;;;;18.00;99.90;;;;;;5049183;28;19925;-60
2022/03/01 03:26:12;;;;;;;;;;;18.00;99.90;;;;;;5047182;28;19925;-63
2022/03/01 03:28:39;;;;;;;;;;;18.00;99.90;;;;;;5048506;28;19929;-59
2022/03/01 03:31:07;;;;;;;;;;;18.00;99.90;;;;;;5048376;28;19948;-59
2022/03/01 03:33:34;;;;;;;;;;;18.00;99.90;;;;;;5048997;28;20328;-62
2022/03/01 03:36:03;;;;;;;;;;;17.90;99.90;;;;;;5044582;28;19929;-61
2022/03/01 03:38:30;;;;;;;;;;;18.00;99.90;;;;;;5052029;28;19925;-63
2022/03/01 03:40:57;;;;;;;;;;;18.00;99.90;;;;;;5057275;28;19951;-62
2022/03/01 03:43:24;;;;;;;;;;;17.90;99.90;;;;;;5056676;28;19929;-62
2022/03/01 03:45:51;;;;;;;;;;;17.90;99.90;;;;;;5045632;28;19933;-62
2022/03/01 03:48:19;;;;;;;;;;;17.90;99.90;;;;;;5047034;28;19929;-59
2022/03/01 03:50:46;;;;;;;;;;;17.90;99.90;;;;;;5048016;28;19929;-60
2022/03/01 03:53:13;;;;;;;;;;;17.90;99.90;;;;;;5049108;28;19952;-60
2022/03/01 03:55:40;;;;;;;;;;;17.90;99.90;;;;;;5049961;28;19935;-61
2022/03/01 03:58:07;;;;;;;;;;;17.90;99.90;;;;;;5053017;28;19929;-60
2022/03/01 04:00:34;;;;;;;;;;;17.80;99.90;;;;;;5053416;28;20420;-61
2022/03/01 04:03:01;;;;;;;;;;;17.80;99.90;;;;;;5051329;28;20426;-60
2022/03/01 04:05:29;;;;;;;;;;;17.80;99.90;;;;;;5040139;28;20000;-64
2022/03/01 04:07:58;;;;;;;;;;;17.80;99.90;;;;;;5046737;28;19929;-61
2022/03/01 04:10:25;;;;;;;;;;;17.80;99.90;;;;;;5051183;28;19929;-63
2022/03/01 04:12:52;;;;;;;;;;;17.80;99.90;;;;;;5057237;28;19928;-60
2022/03/01 04:15:19;;;;;;;;;;;17.80;99.90;;;;;;5045377;28;20297;-62
2022/03/01 04:17:46;;;;;;;;;;;17.80;99.90;;;;;;5044764;28;19933;-63
2022/03/01 04:20:14;;;;;;;;;;;17.80;99.90;;;;;;5045947;28;20432;-63
2022/03/01 04:22:41;;;;;;;;;;;17.80;99.90;;;;;;5046629;28;19929;-61
2022/03/01 04:25:09;;;;;;;;;;;17.80;99.90;;;;;;5047819;28;19936;-64
2022/03/01 04:27:36;;;;;;;;;;;17.80;99.90;;;;;;5047159;28;20338;-60
2022/03/01 04:30:05;;;;;;;;;;;17.80;99.90;;;;;;5046974;28;20328;-56
2022/03/01 04:32:33;;;;;;;;;;;17.80;99.90;;;;;;5044190;28;20369;-62
2022/03/01 04:35:01;;;;;;;;;;;17.80;99.90;;;;;;5046069;28;19928;-62
2022/03/01 04:37:28;;;;;;;;;;;17.70;99.90;;;;;;5050155;28;19935;-59
2022/03/01 04:39:55;;;;;;;;;;;17.70;99.90;;;;;;5050163;28;20430;-61
2022/03/01 04:42:22;;;;;;;;;;;17.70;99.90;;;;;;5043232;28;19948;-61
2022/03/01 04:44:49;;;;;;;;;;;17.70;99.90;;;;;;5046435;28;20308;-62
2022/03/01 04:47:17;;;;;;;;;;;17.70;99.90;;;;;;5046157;28;20004;-62
2022/03/01 04:49:44;;;;;;;;;;;17.70;99.90;;;;;;5040960;28;19963;-62
2022/03/01 04:52:11;;;;;;;;;;;17.70;99.90;;;;;;5050348;28;19952;-63
2022/03/01 04:54:38;;;;;;;;;;;17.70;99.90;;;;;;5040785;28;19935;-63
2022/03/01 04:57:05;;;;;;;;;;;17.70;99.90;;;;;;5043872;28;19929;-65
2022/03/01 04:59:32;;;;;;;;;;;17.80;99.90;;;;;;5036460;28;20010;-62
2022/03/01 05:01:59;;;;;;;;;;;18.00;99.90;;;;;;5075702;28;19933;-64
2022/03/01 05:04:30;;;;;;;;;;;18.10;99.90;;;;;;5051359;28;19936;-62
2022/03/01 05:06:57;;;;;;;;;;;18.30;99.90;;;;;;5043110;28;19925;-60
2022/03/01 05:09:24;;;;;;;;;;;18.40;99.90;;;;;;5048269;28;19949;-63
2022/03/01 05:11:52;;;;;;;;;;;18.50;99.90;;;;;;5045644;28;19936;-58
2022/03/01 05:14:19;;;;;;;;;;;18.60;99.90;;;;;;5044847;28;20312;-62
2022/03/01 05:16:46;;;;;;;;;;;18.70;99.90;;;;;;5044946;28;19933;-60
2022/03/01 05:19:14;;;;;;;;;;;18.80;99.90;;;;;;5043981;28;20435;-64
2022/03/01 05:21:41;;;;;;;;;;;18.90;99.90;;;;;;5046746;28;19933;-62
2022/03/01 05:24:08;;;;;;;;;;;18.90;99.90;;;;;;5046071;28;19928;-63
2022/03/01 05:26:36;;;;;;;;;;;19.10;99.90;;;;;;5047840;28;19936;-63
2022/03/01 05:29:04;;;;;;;;;;;19.20;99.90;;;;;;5040519;28;19929;-61
2022/03/01 05:31:31;;;;;;;;;;;19.30;99.90;;;;;;5044398;28;19929;-61
2022/03/01 05:33:58;;;;;;;;;;;19.40;99.90;;;;;;5039451;28;19929;-60
2022/03/01 05:36:25;;;;;;;;;;;19.60;99.90;;;;;;5045075;28;19940;-60
2022/03/01 05:38:52;;;;;;;;;;;19.70;99.90;;;;;;5047030;28;19929;-62
2022/03/01 05:41:20;;;;;;;;;;;19.70;99.90;;;;;;5050684;28;19925;-64
2022/03/01 05:43:47;;;;;;;;;;;19.90;99.90;;;;;;5051172;28;19928;-65
2022/03/01 05:46:15;;;;;;;;;;;20.00;99.90;;;;;;5043810;28;19936;-65
2022/03/01 05:48:43;;;;;;;;;;;20.10;99.90;;;;;;5049346;28;19928;-65
2022/03/01 05:51:10;;;;;;;;;;;20.30;99.90;;;;;;5041170;28;20385;-63
2022/03/01 05:53:37;;;;;;;;;;;20.40;99.90;;;;;;5046889;28;19929;-65
2022/03/01 05:56:04;;;;;;;;;;;20.50;99.90;;;;;;5033206;28;19929;-61
2022/03/01 05:58:32;;;;;;;;;;;20.60;99.90;;;;;;5040183;28;19948;-59
2022/03/01 06:01:01;;;;;;;;;;;20.60;99.90;;;;;;5042357;28;19936;-61
2022/03/01 06:03:28;;;;;;;;;;;20.60;99.90;;;;;;5044252;28;19929;-60
2022/03/01 06:05:56;;;;;;;;;;;20.60;99.90;;;;;;5046125;28;19940;-60
2022/03/01 06:08:23;;;;;;;;;;;20.60;99.90;;;;;;5045253;28;19933;-60
2022/03/01 06:10:50;;;;;;;;;;;20.60;99.90;;;;;;5039134;28;19933;-60
2022/03/01 06:13:17;;;;;;;;;;;20.60;99.90;;;;;;5041961;28;19932;-61
2022/03/01 06:15:45;;;;;;;;;;;20.50;99.90;;;;;;5046854;28;19929;-60
2022/03/01 06:18:13;;;;;;;;;;;20.50;99.90;;;;;;5045703;28;20315;-60
2022/03/01 06:20:40;;;;;;;;;;;20.50;99.90;;;;;;5043057;28;19929;-59
2022/03/01 06:23:07;;;;;;;;;;;20.40;99.90;;;;;;5046469;28;19929;-63
2022/03/01 06:25:35;;;;;;;;;;;20.40;99.90;;;;;;5043273;28;19928;-60
2022/03/01 06:28:02;;;;;;;;;;;20.50;99.90;;;;;;5046685;28;20790;-60
2022/03/01 06:30:29;;;;;;;;;;;20.50;99.90;;;;;;5042862;28;19924;-60
2022/03/01 06:32:56;;;;;;;;;;;20.50;99.90;;;;;;5044268;28;19936;-58
2022/03/01 06:35:24;;;;;;;;;;;20.50;99.90;;;;;;5045676;28;19928;-64
2022/03/01 06:37:52;;;;;;;;;;;20.50;99.90;;;;;;5038785;28;19929;-64
2022/03/01 06:40:19;;;;;;;;;;;20.40;99.90;;;;;;5037377;28;20308;-65
2022/03/01 06:42:49;;;;;;;;;;;20.50;99.90;;;;;;5042361;28;19936;-65
2022/03/01 06:45:16;;;;;;;;;;;20.50;99.90;;;;;;5045331;28;19952;-65
2022/03/01 06:47:44;;;;;;;;;;;20.40;99.90;;;;;;5042324;28;20369;-63
2022/03/01 06:50:14;;;;;;;;;;;20.30;99.90;;;;;;5036287;28;19925;-63
2022/03/01 06:52:41;;;;;;;;;;;20.20;99.50;;;;;;5035530;28;19937;-67
2022/03/01 06:55:09;;;;;;;;;;;19.80;96.90;;;;;;5046555;28;19928;-63
2022/03/01 06:57:40;;;;;;;;;;;19.60;94.00;;;;;;5034590;28;19933;-62
2022/03/01 07:00:08;;;;;;;;;;;19.40;92.00;;;;;;5040458;28;19928;-65
2022/03/01 07:02:38;;;;;;;;;;;19.40;92.80;;;;;;5041468;28;19933;-64
2022/03/01 07:05:07;;;;;;;;;;;19.50;93.80;;;;;;5070203;28;19939;-65
2022/03/01 07:07:36;;;;;;;;;;;19.60;94.80;;;;;;5042734;28;20351;-63
2022/03/01 07:10:04;;;;;;;;;;;19.70;94.70;;;;;;5041795;28;19933;-63
2022/03/01 07:12:31;;;;;;;;;;;19.90;95.10;;;;;;5042569;28;19929;-66
2022/03/01 07:14:59;;;;;;;;;;;20.00;95.40;;;;;;5043942;28;20009;-64
2022/03/01 07:17:26;;;;;;;;;;;20.10;96.00;;;;;;5041464;28;19933;-65
2022/03/01 07:19:53;;;;;;;;;;;20.30;96.30;;;;;;5046444;28;19924;-63
2022/03/01 07:22:20;;;;;;;;;;;20.30;96.70;;;;;;5043792;28;19936;-63
2022/03/01 07:24:47;;;;;;;;;;;20.40;96.90;;;;;;5043587;28;19944;-63
2022/03/01 07:27:14;;;;;;;;;;;20.50;97.30;;;;;;5063549;28;19933;-63
2022/03/01 07:29:41;;;;;;;;;;;20.60;97.40;;;;;;5051141;28;19929;-62
2022/03/01 07:32:09;;;;;;;;;;;20.70;97.70;;;;;;5039572;28;19936;-63
2022/03/01 07:34:37;;;;;;;;;;;20.80;97.80;;;;;;5053295;28;19933;-65
2022/03/01 07:37:04;;;;;;;;;;;20.80;97.90;;;;;;5044008;28;19929;-63
2022/03/01 07:39:31;;;;;;;;;;;20.90;98.10;;;;;;5044275;28;19929;-64
2022/03/01 07:41:59;;;;;;;;;;;20.80;96.30;;;;;;5042325;28;19929;-66
2022/03/01 07:44:26;;;;;;;;;;;20.80;96.10;;;;;;5041019;28;19932;-62
2022/03/01 07:46:53;;;;;;;;;;;20.80;96.90;;;;;;5048262;28;19967;-66
2022/03/01 07:49:20;;;;;;;;;;;20.90;97.30;;;;;;5043622;28;19939;-63
2022/03/01 07:51:48;;;;;;;;;;;20.90;97.70;;;;;;5048707;28;20357;-63
2022/03/01 07:54:15;;;;;;;;;;;20.90;98.10;;;;;;5047323;28;19932;-62
2022/03/01 07:56:43;;;;;;;;;;;20.90;98.70;;;;;;5042168;28;19929;-61
2022/03/01 07:59:10;;;;;;;;;;;20.80;99.30;;;;;;5042830;28;20015;-63
2022/03/01 08:01:38;;;;;;;;;;;20.80;99.50;;;;;;5043620;28;19936;-63
2022/03/01 08:04:05;;;;;;;;;;;20.70;99.50;;;;;;5053090;28;19929;-61
2022/03/01 08:06:33;;;;;;;;;;;20.60;99.60;;;;;;5053131;28;19924;-63
2022/03/01 08:09:04;;;;;;;;;;;20.50;99.60;;;;;;5050662;28;19929;-62
2022/03/01 08:11:32;;;;;;;;;;;20.40;99.50;;;;;;5051177;28;19929;-65
2022/03/01 08:13:59;;;;;;;;;;;20.40;99.60;;;;;;5050401;28;20388;-64
2022/03/01 08:16:26;;;;;;;;;;;20.40;99.70;;;;;;5049926;28;19947;-63
2022/03/01 08:18:55;;;;;;;;;;;20.40;99.70;;;;;;5048818;28;19928;-62
2022/03/01 08:21:22;;;;;;;;;;;20.40;99.70;;;;;;5049766;28;20315;-61
2022/03/01 08:23:52;;;;;;;;;;;20.40;99.70;;;;;;5046176;28;19935;-62
2022/03/01 08:26:19;;;;;;;;;;;20.30;99.70;;;;;;5047848;28;20351;-62
2022/03/01 08:28:47;;;;;;;;;;;20.30;99.90;;;;;;5048157;28;19939;-65
2022/03/01 08:31:14;;;;;;;;;;;20.40;99.90;;;;;;5048410;28;19932;-71
2022/03/01 08:33:41;;;;;;;;;;;20.40;99.80;;;;;;5051504;28;20419;-64
2022/03/01 08:36:11;;;;;;;;;;;20.40;99.50;;;;;;5049952;28;19928;-65
2022/03/01 08:38:39;;;;;;;;;;;20.40;99.10;;;;;;5049547;28;19928;-64
2022/03/01 08:41:10;;;;;;;;;;;20.30;99.20;;;;;;5047692;28;19936;-58
2022/03/01 08:43:37;;;;;;;;;;;20.20;99.00;;;;;;5049539;28;19932;-64
2022/03/01 08:46:05;;;;;;;;;;;20.10;98.90;;;;;;5049625;28;19935;-63
2022/03/01 08:48:33;;;;;;;;;;;20.00;98.70;;;;;;5037084;28;19937;-59
2022/03/01 08:51:00;;;;;;;;;;;20.00;98.70;;;;;;5048652;28;19935;-63
2022/03/01 08:53:27;;;;;;;;;;;20.10;98.80;;;;;;5052248;28;19940;-66
2022/03/01 08:55:55;;;;;;;;;;;20.10;98.30;;;;;;5054880;28;19928;-64
2022/03/01 08:58:22;;;;;;;;;;;20.20;98.00;;;;;;5053083;28;19928;-62
2022/03/01 09:00:49;;;;;;;;;;;20.30;97.90;;;;;;5048505;28;19928;-60
2022/03/01 09:03:17;;;;;;;;;;;20.40;97.70;;;;;;5053085;28;19933;-63
2022/03/01 09:06:05;;;;;;;;;;;20.50;97.50;;;;;;5051570;28;20509;-62
2022/03/01 09:08:34;;;;;;;;;;;20.60;97.40;;;;;;5055556;28;20008;-60
2022/03/01 09:11:02;;;;;;;;;;;20.70;97.30;;;;;;5053396;28;19935;-61
2022/03/01 09:13:29;;;;;;;;;;;20.70;97.10;;;;;;5049231;28;19925;-62
2022/03/01 09:15:56;;;;;;;;;;;20.80;97.00;;;;;;5048564;28;20389;-61
2022/03/01 09:18:23;;;;;;;;;;;20.80;96.70;;;;;;5049843;28;19928;-61
2022/03/01 09:20:51;;;;;;;;;;;20.80;96.90;;;;;;5043157;28;19940;-63
2022/03/01 09:23:18;;;;;;;;;;;20.80;96.60;;;;;;5046973;28;20343;-60
2022/03/01 09:25:45;;;;;;;;;;;20.80;96.40;;;;;;5046444;28;19933;-60
2022/03/01 09:28:12;;;;;;;;;;;20.70;96.50;;;;;;5042686;28;20379;-57
2022/03/01 09:30:39;;;;;;;;;;;20.70;96.70;;;;;;5047639;28;19929;-61
2022/03/01 09:33:07;;;;;;;;;;;20.70;97.00;;;;;;5048118;28;19929;-59
2022/03/01 09:35:34;;;;;;;;;;;20.70;97.20;;;;;;5049905;28;19929;-60
2022/03/01 09:38:02;;;;;;;;;;;20.70;97.50;;;;;;5049866;28;19939;-62
2022/03/01 09:40:32;;;;;;;;;;;20.70;97.90;;;;;;5047112;28;19936;-61
2022/03/01 09:43:00;;;;;;;;;;;20.60;98.10;;;;;;5050373;28;19932;-61
2022/03/01 09:45:27;;;;;;;;;;;20.60;98.40;;;;;;5047953;28;20428;-62
2022/03/01 09:47:54;;;;;;;;;;;20.60;98.70;;;;;;5043402;28;19929;-57
2022/03/01 09:50:27;;;;;;;;;;;20.60;98.90;;;;;;5058248;28;19936;-59
2022/03/01 09:52:55;;;;;;;;;;;20.50;99.10;;;;;;5040211;28;19940;-59
2022/03/01 09:55:23;;;;;;;;;;;20.50;99.40;;;;;;5046185;28;19932;-60
2022/03/01 09:57:56;;;;;;;;;;;20.50;99.60;;;;;;5040708;28;19928;-61
2022/03/01 10:00:25;;;;;;;;;;;20.40;99.80;;;;;;5038942;28;21620;-58
2022/03/01 10:02:54;;;;;;;;;;;20.40;99.90;;;;;;5039201;28;19936;-62
2022/03/01 10:05:34;;;;;;;;;;;20.40;99.90;;;;;;5039872;28;19955;-58
2022/03/01 10:08:08;;;;;;;;;;;20.40;99.90;;;;;;5041440;28;19928;-62
2022/03/01 10:10:40;;;;;;;;;;;20.40;99.90;;;;;;5040784;28;19933;-60
2022/03/01 10:13:07;;;;;;;;;;;20.40;99.90;;;;;;5041605;28;19928;-60
2022/03/01 10:15:35;;;;;;;;;;;20.30;99.90;;;;;;5044554;28;19928;-60
2022/03/01 10:18:12;;;;;;;;;;;20.30;99.90;;;;;;5037920;28;19950;-61
2022/03/01 10:20:41;;;;;;;;;;;20.40;99.90;;;;;;5041935;28;20499;-57
2022/03/01 10:23:09;;;;;;;;;;;20.40;99.90;;;;;;5043279;28;19936;-61
2022/03/01 10:25:39;;;;;;;;;;;20.50;99.90;;;;;;5045167;28;19929;-58
2022/03/01 10:28:07;;;;;;;;;;;20.60;99.90;;;;;;5044454;28;20352;-57
2022/03/01 10:30:36;;;;;;;;;;;20.80;99.90;;;;;;5042858;28;20380;-62
2022/03/01 10:33:06;;;;;;;;;;;20.90;99.90;;;;;;5041032;28;20285;-59
2022/03/01 10:35:34;;;;;;;;;;;21.00;99.90;;;;;;5043489;28;19948;-58
2022/03/01 10:38:02;;;;;;;;;;;21.00;99.90;;;;;;5044267;28;19929;-61
2022/03/01 10:40:30;;;;;;;;;;;21.00;99.90;;;;;;5043316;28;19925;-58
2022/03/01 10:43:05;;;;;;;;;;;21.00;99.90;;;;;;5042352;28;19955;-59
2022/03/01 10:45:37;;;;;;;;;;;21.00;99.90;;;;;;5038546;28;19925;-60
2022/03/01 10:48:06;;;;;;;;;;;21.00;99.90;;;;;;5043406;28;19929;-61
2022/03/01 10:50:33;;;;;;;;;;;21.00;99.90;;;;;;5043333;28;19929;-61
2022/03/01 10:53:00;;;;;;;;;;;21.00;99.90;;;;;;5049507;28;20300;-59
2022/03/01 10:55:29;;;;;;;;;;;21.00;99.90;;;;;;5056244;28;19935;-54
2022/03/01 10:58:00;;;;;;;;;;;20.90;99.90;;;;;;5045793;28;19928;-63
2022/03/01 11:00:27;;;;;;;;;;;20.90;99.90;;;;;;5048106;28;19945;-61
2022/03/01 11:02:54;;;;;;;;;;;20.90;99.90;;;;;;5054176;28;19935;-59
2022/03/01 11:05:22;;;;;;;;;;;20.90;99.90;;;;;;5046246;28;19936;-61
2022/03/01 11:08:10;;;;;;;;;;;20.80;99.90;;;;;;5047202;28;20257;-58
2022/03/01 11:10:39;;;;;;;;;;;20.80;99.90;;;;;;5047650;28;19928;-59
2022/03/01 11:13:07;;;;;;;;;;;20.80;99.90;;;;;;5047414;28;20422;-58
2022/03/01 11:15:38;;;;;;;;;;;20.70;99.90;;;;;;5047634;28;19925;-62
2022/03/01 11:18:24;;;;;;;;;;;20.70;99.90;;;;;;5063826;28;19944;-59
2022/03/01 11:20:53;;;;;;;;;;;20.70;99.90;;;;;;5048176;28;19929;-61
2022/03/01 11:23:22;;;;;;;;;;;20.60;99.90;;;;;;5049333;28;19935;-59
2022/03/01 11:25:52;;;;;;;;;;;20.60;99.90;;;;;;5048574;28;19955;-59
2022/03/01 11:28:39;;;;;;;;;;;20.60;99.90;;;;;;5053783;28;19925;-60
2022/03/01 11:31:20;;;;;;;;;;;20.50;99.90;;;;;;5053405;28;19928;-61
2022/03/01 11:33:55;;;;;;;;;;;20.50;99.90;;;;;;5033626;28;19929;-60
2022/03/01 11:36:23;;;;;;;;;;;20.40;99.90;;;;;;5049095;28;19937;-60
2022/03/01 11:38:50;;;;;;;;;;;20.50;99.90;;;;;;5052446;28;19924;-62
2022/03/01 11:41:22;;;;;;;;;;;20.40;99.90;;;;;;5051624;28;19933;-62
2022/03/01 11:43:55;;;;;;;;;;;20.40;99.90;;;;;;5052652;28;19929;-62
2022/03/01 11:46:38;;;;;;;;;;;20.40;99.90;;;;;;5039535;28;19940;-61
2022/03/01 11:49:06;;;;;;;;;;;20.40;99.90;;;;;;5048314;28;19940;-59
2022/03/01 11:51:34;;;;;;;;;;;20.50;99.90;;;;;;5081343;28;19950;-63
2022/03/01 11:54:06;;;;;;;;;;;20.60;99.90;;;;;;5057440;28;20541;-64
2022/03/01 11:56:34;;;;;;;;;;;20.70;99.90;;;;;;5045848;28;19947;-63
2022/03/01 11:59:05;;;;;;;;;;;20.80;99.90;;;;;;5044702;28;19939;-61
2022/03/01 12:01:33;;;;;;;;;;;20.90;99.90;;;;;;5046141;28;19936;-63
2022/03/01 12:04:07;;;;;;;;;;;20.90;99.90;;;;;;5043676;28;20270;-62
2022/03/01 12:06:36;;;;;;;;;;;21.00;99.90;;;;;;5048169;28;19928;-59
2022/03/01 12:09:04;;;;;;;;;;;20.90;99.90;;;;;;5044482;28;20673;-64
2022/03/01 12:11:42;;;;;;;;;;;20.80;98.30;;;;;;5045894;28;19949;-60
2022/03/01 12:14:12;;;;;;;;;;;20.70;96.00;;;;;;5043181;28;19935;-60
2022/03/01 12:16:39;;;;;;;;;;;20.60;93.80;;;;;;5038304;28;20045;-59
2022/03/01 12:19:09;;;;;;;;;;;20.50;92.90;;;;;;5076909;27;19933;-56
2022/03/01 12:21:37;;;;;;;;;;;20.40;91.70;;;;;;5048579;28;19925;-59
2022/03/01 12:24:05;;;;;;;;;;;20.50;92.00;;;;;;5048885;28;19933;-56
2022/03/01 12:26:40;;;;;;;;;;;20.50;92.70;;;;;;5049076;28;20051;-59
2022/03/01 12:29:09;;;;;;;;;;;20.60;93.50;;;;;;5044857;28;19942;-56
2022/03/01 12:31:36;;;;;;;;;;;20.70;94.10;;;;;;5047578;28;19932;-60
2022/03/01 12:34:07;;;;;;;;;;;20.80;94.50;;;;;;5047230;28;20609;-61
2022/03/01 12:36:36;;;;;;;;;;;20.90;94.90;;;;;;5048309;28;20004;-59
2022/03/01 12:39:04;;;;;;;;;;;20.90;95.30;;;;;;5042597;28;20416;-58
2022/03/01 12:41:38;;;;;;;;;;;21.00;95.70;;;;;;5043650;28;19929;-56
2022/03/01 12:44:07;;;;;;;;;;;21.00;95.90;;;;;;5045350;28;19925;-59
2022/03/01 12:46:35;;;;;;;;;;;21.10;96.20;;;;;;5041246;28;20448;-59
2022/03/01 12:49:04;;;;;;;;;;;21.10;96.30;;;;;;5050436;28;19929;-58
2022/03/01 12:51:31;;;;;;;;;;;21.10;96.60;;;;;;5044619;28;19940;-60
2022/03/01 12:53:59;;;;;;;;;;;21.10;96.80;;;;;;5038906;28;19933;-59
2022/03/01 12:56:32;;;;;;;;;;;21.10;97.10;;;;;;5040936;28;19929;-58
2022/03/01 12:59:04;;;;;;;;;;;21.10;97.20;;;;;;5037710;28;19925;-58
2022/03/01 13:01:32;;;;;;;;;;;21.10;97.40;;;;;;5041658;28;19936;-60
2022/03/01 13:03:59;;;;;;;;;;;21.10;97.50;;;;;;5045476;28;20408;-57
2022/03/01 13:06:26;;;;;;;;;;;21.10;97.60;;;;;;5042582;28;19929;-57
2022/03/01 13:08:54;;;;;;;;;;;21.10;97.80;;;;;;5045495;28;19935;-56
2022/03/01 13:11:23;;;;;;;;;;;21.00;98.00;;;;;;5042516;28;19936;-58
2022/03/01 13:14:17;;;;;;;;;;;21.00;98.20;;;;;;5042331;28;19940;-57
2022/03/01 13:16:45;;;;;;;;;;;21.00;98.30;;;;;;5042127;28;20408;-59
2022/03/01 13:19:13;;;;;;;;;;;21.00;98.30;;;;;;5041263;28;19932;-60
2022/03/01 13:21:44;;;;;;;;;;;21.00;98.40;;;;;;5042652;28;19929;-59
2022/03/01 13:24:20;;;;;;;;;;;21.00;98.50;;;;;;5043669;28;19936;-61
2022/03/01 13:26:49;;;;;;;;;;;21.00;98.60;;;;;;5042313;28;20288;-58
2022/03/01 13:29:21;;;;;;;;;;;21.00;98.70;;;;;;5040830;28;20293;-59
2022/03/01 13:31:59;;;;;;;;;;;21.00;98.90;;;;;;5039664;28;19944;-58
2022/03/01 13:34:26;;;;;;;;;;;20.90;98.90;;;;;;5041870;28;19929;-57
2022/03/01 13:36:54;;;;;;;;;;;20.90;99.10;;;;;;5044979;28;20577;-57
2022/03/01 13:39:21;;;;;;;;;;;20.90;99.10;;;;;;5040669;28;19935;-56
2022/03/01 13:41:52;;;;;;;;;;;20.90;99.30;;;;;;5041078;28;19947;-60
2022/03/01 13:44:22;;;;;;;;;;;20.90;99.40;;;;;;5039858;28;19944;-60
2022/03/01 13:46:52;;;;;;;;;;;20.90;99.50;;;;;;5039662;28;19938;-59
2022/03/01 13:49:43;;;;;;;;;;;21.00;99.60;;;;;;5071544;28;19929;-60
2022/03/01 13:52:11;;;;;;;;;;;21.10;99.50;;;;;;5034492;28;20399;-63
2022/03/01 13:54:39;;;;;;;;;;;21.20;99.70;;;;;;5039591;28;19925;-61
2022/03/01 13:57:07;;;;;;;;;;;21.30;99.60;;;;;;5035946;28;20511;-62
2022/03/01 13:59:34;;;;;;;;;;;21.40;99.70;;;;;;5038175;28;19947;-63
2022/03/01 14:02:01;;;;;;;;;;;21.50;99.50;;;;;;5037451;28;19928;-64
2022/03/01 14:04:29;;;;;;;;;;;21.60;99.40;;;;;;5038462;28;20431;-63
2022/03/01 14:06:57;;;;;;;;;;;21.60;99.40;;;;;;5039184;28;19925;-66
2022/03/01 14:09:24;;;;;;;;;;;21.60;99.40;;;;;;5036699;28;19929;-61
2022/03/01 14:12:01;;;;;;;;;;;21.50;99.50;;;;;;5042004;28;19941;-63
2022/03/01 14:14:28;;;;;;;;;;;21.50;99.50;;;;;;5038869;28;19928;-64
2022/03/01 14:16:55;;;;;;;;;;;21.40;99.70;;;;;;5041782;28;19929;-62
2022/03/01 14:19:22;;;;;;;;;;;21.30;99.40;;;;;;5040631;28;20524;-61
2022/03/01 14:21:49;;;;;;;;;;;21.20;97.30;;;;;;5043656;28;19933;-64
2022/03/01 14:24:17;;;;;;;;;;;21.20;97.50;;;;;;5036831;28;19936;-62